sensor_id;sensor_type;location;lat;lon;timestamp;P1;durP1;ratioP1;P2;durP2;ratioP2
5483;SDS011;2764;48.794;8.326;2022-11-15T00:00:11;22.63;;;20.25;;
5483;SDS011;2764;48.794;8.326;2022-11-15T00:01:15;24.98;;;19.23;;
5483;SDS011;2764;48.794;8.326;2022-11-15T00:02:19;26.83;;;20.15;;
5483;SDS011;2764;48.794;8.326;2022-11-15T00:03:21;20.33;;;18.15;;
5483;SDS011;2764;48.794;8.326;2022-11-15T00:04:24;24.05;;;18.48;;
5483;SDS011;2764;48.794;8.326;2022-11-15T00:05:26;25.08;;;20.25;;
5483;SDS011;2764;48.794;8.326;2022-11-15T00:06:28;27.75;;;19.20;;
5483;SDS011;2764;48.794;8.326;2022-11-15T00:07:30;21.35;;;18.02;;
5483;SDS011;2764;48.794;8.326;2022-11-15T00:08:51;23.90;;;18.52;;
5483;SDS011;2764;48.794;8.326;2022-11-15T00:09:53;21.98;;;17.02;;
5483;SDS011;2764;48.794;8.326;2022-11-15T00:10:55;24.33;;;19.25;;
5483;SDS011;2764;48.794;8.326;2022-11-15T00:11:58;20.95;;;16.85;;
5483;SDS011;2764;48.794;8.326;2022-11-15T00:12:59;18.33;;;16.35;;
5483;SDS011;2764;48.794;8.326;2022-11-15T00:14:01;19.58;;;17.33;;
5483;SDS011;2764;48.794;8.326;2022-11-15T00:15:05;23.02;;;16.85;;
5483;SDS011;2764;48.794;8.326;2022-11-15T00:16:08;25.63;;;16.40;;
5483;SDS011;2764;48.794;8.326;2022-11-15T00:17:10;21.20;;;17.20;;
5483;SDS011;2764;48.794;8.326;2022-11-15T00:18:12;17.35;;;15.65;;
5483;SDS011;2764;48.794;8.326;2022-11-15T00:19:15;19.98;;;17.15;;
5483;SDS011;2764;48.794;8.326;2022-11-15T00:20:17;19.88;;;15.25;;
5483;SDS011;2764;48.794;8.326;2022-11-15T00:21:19;17.85;;;14.68;;
5483;SDS011;2764;48.794;8.326;2022-11-15T00:22:21;15.95;;;14.27;;
5483;SDS011;2764;48.794;8.326;2022-11-15T00:23:22;23.10;;;14.32;;
5483;SDS011;2764;48.794;8.326;2022-11-15T00:24:24;20.02;;;12.68;;
5483;SDS011;2764;48.794;8.326;2022-11-15T00:25:26;17.35;;;11.73;;
5483;SDS011;2764;48.794;8.326;2022-11-15T00:26:28;15.10;;;11.60;;
5483;SDS011;2764;48.794;8.326;2022-11-15T00:27:30;20.10;;;11.52;;
5483;SDS011;2764;48.794;8.326;2022-11-15T00:28:31;18.35;;;11.43;;
5483;SDS011;2764;48.794;8.326;2022-11-15T00:29:33;18.90;;;11.70;;
5483;SDS011;2764;48.794;8.326;2022-11-15T00:30:35;15.38;;;12.05;;
5483;SDS011;2764;48.794;8.326;2022-11-15T00:31:37;14.80;;;11.60;;
5483;SDS011;2764;48.794;8.326;2022-11-15T00:32:39;16.98;;;10.85;;
5483;SDS011;2764;48.794;8.326;2022-11-15T00:33:42;15.38;;;11.27;;
5483;SDS011;2764;48.794;8.326;2022-11-15T00:34:44;12.32;;;10.35;;
5483;SDS011;2764;48.794;8.326;2022-11-15T00:35:46;14.13;;;9.60;;
5483;SDS011;2764;48.794;8.326;2022-11-15T00:36:47;15.73;;;10.40;;
5483;SDS011;2764;48.794;8.326;2022-11-15T00:37:49;13.52;;;9.25;;
5483;SDS011;2764;48.794;8.326;2022-11-15T00:38:53;14.90;;;10.07;;
5483;SDS011;2764;48.794;8.326;2022-11-15T00:39:55;11.43;;;10.25;;
5483;SDS011;2764;48.794;8.326;2022-11-15T00:40:56;13.60;;;9.98;;
5483;SDS011;2764;48.794;8.326;2022-11-15T00:41:58;16.08;;;10.52;;
5483;SDS011;2764;48.794;8.326;2022-11-15T00:43:00;10.38;;;9.10;;
5483;SDS011;2764;48.794;8.326;2022-11-15T00:44:01;14.65;;;9.35;;
5483;SDS011;2764;48.794;8.326;2022-11-15T00:45:03;12.75;;;9.43;;
5483;SDS011;2764;48.794;8.326;2022-11-15T00:46:05;13.68;;;10.40;;
5483;SDS011;2764;48.794;8.326;2022-11-15T00:47:07;12.63;;;9.73;;
5483;SDS011;2764;48.794;8.326;2022-11-15T00:48:09;12.05;;;10.38;;
5483;SDS011;2764;48.794;8.326;2022-11-15T00:49:11;11.88;;;10.68;;
5483;SDS011;2764;48.794;8.326;2022-11-15T00:50:12;14.40;;;10.70;;
5483;SDS011;2764;48.794;8.326;2022-11-15T00:51:15;13.90;;;10.98;;
5483;SDS011;2764;48.794;8.326;2022-11-15T00:52:17;16.52;;;11.55;;
5483;SDS011;2764;48.794;8.326;2022-11-15T00:53:19;18.13;;;10.70;;
5483;SDS011;2764;48.794;8.326;2022-11-15T00:54:21;13.77;;;10.32;;
5483;SDS011;2764;48.794;8.326;2022-11-15T00:55:23;14.27;;;10.10;;
5483;SDS011;2764;48.794;8.326;2022-11-15T00:56:24;12.55;;;10.80;;
5483;SDS011;2764;48.794;8.326;2022-11-15T00:57:26;16.17;;;10.93;;
5483;SDS011;2764;48.794;8.326;2022-11-15T00:58:28;15.50;;;9.82;;
5483;SDS011;2764;48.794;8.326;2022-11-15T00:59:29;16.75;;;9.05;;
5483;SDS011;2764;48.794;8.326;2022-11-15T01:00:31;12.60;;;10.55;;
5483;SDS011;2764;48.794;8.326;2022-11-15T01:01:33;11.18;;;9.65;;
5483;SDS011;2764;48.794;8.326;2022-11-15T01:02:35;10.52;;;9.57;;
5483;SDS011;2764;48.794;8.326;2022-11-15T01:03:37;19.27;;;8.90;;
5483;SDS011;2764;48.794;8.326;2022-11-15T01:04:40;11.32;;;10.18;;
5483;SDS011;2764;48.794;8.326;2022-11-15T01:05:41;18.00;;;10.15;;
5483;SDS011;2764;48.794;8.326;2022-11-15T01:06:43;11.57;;;8.27;;
5483;SDS011;2764;48.794;8.326;2022-11-15T01:07:45;10.00;;;8.93;;
5483;SDS011;2764;48.794;8.326;2022-11-15T01:08:46;12.43;;;9.10;;
5483;SDS011;2764;48.794;8.326;2022-11-15T01:09:48;13.77;;;9.10;;
5483;SDS011;2764;48.794;8.326;2022-11-15T01:10:50;12.90;;;9.70;;
5483;SDS011;2764;48.794;8.326;2022-11-15T01:11:52;12.85;;;9.52;;
5483;SDS011;2764;48.794;8.326;2022-11-15T01:12:53;12.25;;;10.00;;
5483;SDS011;2764;48.794;8.326;2022-11-15T01:13:55;14.05;;;10.38;;
5483;SDS011;2764;48.794;8.326;2022-11-15T01:14:57;13.30;;;10.23;;
5483;SDS011;2764;48.794;8.326;2022-11-15T01:16:05;10.38;;;9.35;;
5483;SDS011;2764;48.794;8.326;2022-11-15T01:17:08;20.40;;;9.77;;
5483;SDS011;2764;48.794;8.326;2022-11-15T01:18:10;15.23;;;9.27;;
5483;SDS011;2764;48.794;8.326;2022-11-15T01:19:12;13.35;;;10.95;;
5483;SDS011;2764;48.794;8.326;2022-11-15T01:20:13;11.77;;;9.80;;
5483;SDS011;2764;48.794;8.326;2022-11-15T01:21:16;11.68;;;9.00;;
5483;SDS011;2764;48.794;8.326;2022-11-15T01:22:19;13.02;;;9.05;;
5483;SDS011;2764;48.794;8.326;2022-11-15T01:23:21;13.02;;;8.55;;
5483;SDS011;2764;48.794;8.326;2022-11-15T01:24:23;13.35;;;9.50;;
5483;SDS011;2764;48.794;8.326;2022-11-15T01:25:25;14.65;;;8.90;;
5483;SDS011;2764;48.794;8.326;2022-11-15T01:26:26;10.10;;;9.02;;
5483;SDS011;2764;48.794;8.326;2022-11-15T01:27:28;10.93;;;8.65;;
5483;SDS011;2764;48.794;8.326;2022-11-15T01:28:31;12.35;;;9.30;;
5483;SDS011;2764;48.794;8.326;2022-11-15T01:29:33;12.23;;;8.05;;
5483;SDS011;2764;48.794;8.326;2022-11-15T01:30:35;11.25;;;9.13;;
5483;SDS011;2764;48.794;8.326;2022-11-15T01:31:37;10.02;;;8.93;;
5483;SDS011;2764;48.794;8.326;2022-11-15T01:32:39;10.35;;;8.05;;
5483;SDS011;2764;48.794;8.326;2022-11-15T01:33:41;17.73;;;8.23;;
5483;SDS011;2764;48.794;8.326;2022-11-15T01:34:43;18.25;;;8.30;;
5483;SDS011;2764;48.794;8.326;2022-11-15T01:35:44;12.48;;;8.50;;
5483;SDS011;2764;48.794;8.326;2022-11-15T01:36:46;13.40;;;8.27;;
5483;SDS011;2764;48.794;8.326;2022-11-15T01:37:48;9.70;;;7.90;;
5483;SDS011;2764;48.794;8.326;2022-11-15T01:38:54;10.80;;;7.88;;
5483;SDS011;2764;48.794;8.326;2022-11-15T01:39:56;11.90;;;6.75;;
5483;SDS011;2764;48.794;8.326;2022-11-15T01:40:58;12.25;;;7.75;;
5483;SDS011;2764;48.794;8.326;2022-11-15T01:42:00;10.20;;;7.00;;
5483;SDS011;2764;48.794;8.326;2022-11-15T01:43:18;8.38;;;6.95;;
5483;SDS011;2764;48.794;8.326;2022-11-15T01:44:38;7.32;;;6.38;;
5483;SDS011;2764;48.794;8.326;2022-11-15T01:45:42;14.18;;;7.05;;
5483;SDS011;2764;48.794;8.326;2022-11-15T01:46:46;12.77;;;6.68;;
5483;SDS011;2764;48.794;8.326;2022-11-15T01:47:50;12.73;;;7.18;;
5483;SDS011;2764;48.794;8.326;2022-11-15T01:48:56;20.60;;;6.55;;
5483;SDS011;2764;48.794;8.326;2022-11-15T01:50:08;10.85;;;7.18;;
5483;SDS011;2764;48.794;8.326;2022-11-15T01:51:13;8.95;;;6.72;;
5483;SDS011;2764;48.794;8.326;2022-11-15T01:52:19;12.95;;;6.88;;
5483;SDS011;2764;48.794;8.326;2022-11-15T01:53:22;10.13;;;7.25;;
5483;SDS011;2764;48.794;8.326;2022-11-15T01:54:26;15.00;;;7.38;;
5483;SDS011;2764;48.794;8.326;2022-11-15T01:55:28;11.32;;;7.25;;
5483;SDS011;2764;48.794;8.326;2022-11-15T01:56:31;11.13;;;7.68;;
5483;SDS011;2764;48.794;8.326;2022-11-15T01:57:37;10.73;;;6.40;;
5483;SDS011;2764;48.794;8.326;2022-11-15T01:58:41;10.20;;;7.05;;
5483;SDS011;2764;48.794;8.326;2022-11-15T01:59:44;7.35;;;6.65;;
5483;SDS011;2764;48.794;8.326;2022-11-15T02:00:47;8.68;;;7.15;;
5483;SDS011;2764;48.794;8.326;2022-11-15T02:01:51;13.98;;;7.68;;
5483;SDS011;2764;48.794;8.326;2022-11-15T02:02:53;10.30;;;7.28;;
5483;SDS011;2764;48.794;8.326;2022-11-15T02:04:02;12.20;;;8.20;;
5483;SDS011;2764;48.794;8.326;2022-11-15T02:05:09;10.25;;;6.75;;
5483;SDS011;2764;48.794;8.326;2022-11-15T02:06:11;9.18;;;6.82;;
5483;SDS011;2764;48.794;8.326;2022-11-15T02:07:17;12.07;;;7.43;;
5483;SDS011;2764;48.794;8.326;2022-11-15T02:08:21;9.10;;;6.70;;
5483;SDS011;2764;48.794;8.326;2022-11-15T02:09:23;13.57;;;7.40;;
5483;SDS011;2764;48.794;8.326;2022-11-15T02:10:25;10.00;;;7.30;;
5483;SDS011;2764;48.794;8.326;2022-11-15T02:11:29;15.55;;;7.20;;
5483;SDS011;2764;48.794;8.326;2022-11-15T02:12:31;7.85;;;7.10;;
5483;SDS011;2764;48.794;8.326;2022-11-15T02:13:33;10.00;;;7.13;;
5483;SDS011;2764;48.794;8.326;2022-11-15T02:14:35;8.07;;;7.18;;
5483;SDS011;2764;48.794;8.326;2022-11-15T02:15:40;7.63;;;6.82;;
5483;SDS011;2764;48.794;8.326;2022-11-15T02:22:22;6.85;;;6.25;;
5483;SDS011;2764;48.794;8.326;2022-11-15T02:24:11;8.48;;;6.40;;
5483;SDS011;2764;48.794;8.326;2022-11-15T02:26:56;16.02;;;5.90;;
5483;SDS011;2764;48.794;8.326;2022-11-15T02:31:48;7.90;;;5.50;;
5483;SDS011;2764;48.794;8.326;2022-11-15T02:35:02;13.52;;;6.75;;
5483;SDS011;2764;48.794;8.326;2022-11-15T02:36:10;8.05;;;6.80;;
5483;SDS011;2764;48.794;8.326;2022-11-15T02:38:24;7.68;;;6.78;;
5483;SDS011;2764;48.794;8.326;2022-11-15T02:39:57;7.75;;;7.00;;
5483;SDS011;2764;48.794;8.326;2022-11-15T02:41:19;9.75;;;6.60;;
5483;SDS011;2764;48.794;8.326;2022-11-15T02:42:26;11.93;;;6.47;;
5483;SDS011;2764;48.794;8.326;2022-11-15T02:44:36;15.57;;;6.75;;
5483;SDS011;2764;48.794;8.326;2022-11-15T02:45:17;6.78;;;6.18;;
5483;SDS011;2764;48.794;8.326;2022-11-15T02:47:56;10.82;;;5.80;;
5483;SDS011;2764;48.794;8.326;2022-11-15T02:49:01;12.18;;;5.90;;
5483;SDS011;2764;48.794;8.326;2022-11-15T02:50:07;8.07;;;6.30;;
5483;SDS011;2764;48.794;8.326;2022-11-15T02:51:11;9.43;;;7.78;;
5483;SDS011;2764;48.794;8.326;2022-11-15T02:52:17;10.13;;;6.65;;
5483;SDS011;2764;48.794;8.326;2022-11-15T02:53:24;8.02;;;6.55;;
5483;SDS011;2764;48.794;8.326;2022-11-15T02:54:31;8.93;;;7.38;;
5483;SDS011;2764;48.794;8.326;2022-11-15T02:55:35;9.95;;;6.63;;
5483;SDS011;2764;48.794;8.326;2022-11-15T02:56:42;6.47;;;5.78;;
5483;SDS011;2764;48.794;8.326;2022-11-15T02:57:51;13.55;;;6.80;;
5483;SDS011;2764;48.794;8.326;2022-11-15T02:59:02;7.88;;;5.72;;
5483;SDS011;2764;48.794;8.326;2022-11-15T03:00:15;7.78;;;6.50;;
5483;SDS011;2764;48.794;8.326;2022-11-15T03:04:16;8.75;;;6.05;;
5483;SDS011;2764;48.794;8.326;2022-11-15T03:05:50;6.15;;;5.55;;
5483;SDS011;2764;48.794;8.326;2022-11-15T03:07:15;8.82;;;5.40;;
5483;SDS011;2764;48.794;8.326;2022-11-15T03:11:18;5.00;;;4.50;;
5483;SDS011;2764;48.794;8.326;2022-11-15T03:16:09;4.72;;;4.43;;
5483;SDS011;2764;48.794;8.326;2022-11-15T03:17:30;6.55;;;4.93;;
5483;SDS011;2764;48.794;8.326;2022-11-15T03:18:38;5.90;;;4.93;;
5483;SDS011;2764;48.794;8.326;2022-11-15T03:19:47;5.63;;;5.13;;
5483;SDS011;2764;48.794;8.326;2022-11-15T03:20:54;5.82;;;5.25;;
5483;SDS011;2764;48.794;8.326;2022-11-15T03:21:59;4.65;;;4.25;;
5483;SDS011;2764;48.794;8.326;2022-11-15T03:23:05;5.03;;;4.63;;
5483;SDS011;2764;48.794;8.326;2022-11-15T03:24:09;7.07;;;5.40;;
5483;SDS011;2764;48.794;8.326;2022-11-15T03:25:16;6.00;;;5.50;;
5483;SDS011;2764;48.794;8.326;2022-11-15T03:26:22;4.97;;;4.43;;
5483;SDS011;2764;48.794;8.326;2022-11-15T03:27:28;7.40;;;4.97;;
5483;SDS011;2764;48.794;8.326;2022-11-15T03:28:40;8.27;;;5.22;;
5483;SDS011;2764;48.794;8.326;2022-11-15T03:29:44;5.30;;;4.80;;
5483;SDS011;2764;48.794;8.326;2022-11-15T03:30:51;7.50;;;5.40;;
5483;SDS011;2764;48.794;8.326;2022-11-15T03:32:00;8.38;;;5.07;;
5483;SDS011;2764;48.794;8.326;2022-11-15T03:33:07;5.97;;;5.38;;
5483;SDS011;2764;48.794;8.326;2022-11-15T03:34:10;6.07;;;5.30;;
5483;SDS011;2764;48.794;8.326;2022-11-15T03:35:37;7.05;;;4.40;;
5483;SDS011;2764;48.794;8.326;2022-11-15T03:36:42;8.63;;;4.90;;
5483;SDS011;2764;48.794;8.326;2022-11-15T03:37:53;11.77;;;5.10;;
5483;SDS011;2764;48.794;8.326;2022-11-15T03:39:00;7.72;;;4.90;;
5483;SDS011;2764;48.794;8.326;2022-11-15T03:40:05;7.05;;;5.32;;
5483;SDS011;2764;48.794;8.326;2022-11-15T03:41:09;5.70;;;5.07;;
5483;SDS011;2764;48.794;8.326;2022-11-15T03:42:30;5.15;;;4.65;;
5483;SDS011;2764;48.794;8.326;2022-11-15T03:43:41;6.10;;;4.20;;
5483;SDS011;2764;48.794;8.326;2022-11-15T03:46:26;8.20;;;5.78;;
5483;SDS011;2764;48.794;8.326;2022-11-15T03:47:38;8.20;;;5.70;;
5483;SDS011;2764;48.794;8.326;2022-11-15T03:48:44;9.73;;;6.30;;
5483;SDS011;2764;48.794;8.326;2022-11-15T03:49:51;6.53;;;5.60;;
5483;SDS011;2764;48.794;8.326;2022-11-15T03:50:58;7.68;;;6.00;;
5483;SDS011;2764;48.794;8.326;2022-11-15T03:52:01;9.57;;;6.15;;
5483;SDS011;2764;48.794;8.326;2022-11-15T03:53:05;9.73;;;6.10;;
5483;SDS011;2764;48.794;8.326;2022-11-15T03:54:07;10.60;;;5.55;;
5483;SDS011;2764;48.794;8.326;2022-11-15T03:55:11;15.57;;;6.63;;
5483;SDS011;2764;48.794;8.326;2022-11-15T03:56:16;9.60;;;5.78;;
5483;SDS011;2764;48.794;8.326;2022-11-15T03:57:17;7.13;;;5.85;;
5483;SDS011;2764;48.794;8.326;2022-11-15T03:58:19;6.90;;;6.22;;
5483;SDS011;2764;48.794;8.326;2022-11-15T03:59:21;7.13;;;6.20;;
5483;SDS011;2764;48.794;8.326;2022-11-15T04:00:23;12.10;;;5.72;;
5483;SDS011;2764;48.794;8.326;2022-11-15T04:01:25;8.85;;;6.35;;
5483;SDS011;2764;48.794;8.326;2022-11-15T04:02:28;8.68;;;5.78;;
5483;SDS011;2764;48.794;8.326;2022-11-15T04:03:30;6.20;;;5.60;;
5483;SDS011;2764;48.794;8.326;2022-11-15T04:04:32;8.13;;;5.43;;
5483;SDS011;2764;48.794;8.326;2022-11-15T04:05:33;7.78;;;6.18;;
5483;SDS011;2764;48.794;8.326;2022-11-15T04:06:35;8.63;;;6.72;;
5483;SDS011;2764;48.794;8.326;2022-11-15T04:07:37;8.98;;;6.22;;
5483;SDS011;2764;48.794;8.326;2022-11-15T04:08:39;11.20;;;6.97;;
5483;SDS011;2764;48.794;8.326;2022-11-15T04:09:40;14.10;;;6.90;;
5483;SDS011;2764;48.794;8.326;2022-11-15T04:11:01;11.27;;;7.65;;
5483;SDS011;2764;48.794;8.326;2022-11-15T04:12:03;6.65;;;6.00;;
5483;SDS011;2764;48.794;8.326;2022-11-15T04:13:05;11.93;;;6.82;;
5483;SDS011;2764;48.794;8.326;2022-11-15T04:14:07;6.60;;;5.90;;
5483;SDS011;2764;48.794;8.326;2022-11-15T04:16:14;7.25;;;6.28;;
5483;SDS011;2764;48.794;8.326;2022-11-15T04:17:16;7.80;;;6.85;;
5483;SDS011;2764;48.794;8.326;2022-11-15T04:18:17;9.48;;;6.28;;
5483;SDS011;2764;48.794;8.326;2022-11-15T04:19:19;7.85;;;6.35;;
5483;SDS011;2764;48.794;8.326;2022-11-15T04:20:39;12.45;;;7.32;;
5483;SDS011;2764;48.794;8.326;2022-11-15T04:22:00;19.73;;;6.82;;
5483;SDS011;2764;48.794;8.326;2022-11-15T04:23:30;12.23;;;8.05;;
5483;SDS011;2764;48.794;8.326;2022-11-15T04:25:11;10.57;;;7.18;;
5483;SDS011;2764;48.794;8.326;2022-11-15T04:26:14;7.70;;;6.60;;
5483;SDS011;2764;48.794;8.326;2022-11-15T04:27:19;9.98;;;7.28;;
5483;SDS011;2764;48.794;8.326;2022-11-15T04:28:21;7.90;;;6.45;;
5483;SDS011;2764;48.794;8.326;2022-11-15T04:29:23;8.35;;;6.80;;
5483;SDS011;2764;48.794;8.326;2022-11-15T04:30:37;10.40;;;6.97;;
5483;SDS011;2764;48.794;8.326;2022-11-15T04:31:38;7.05;;;6.35;;
5483;SDS011;2764;48.794;8.326;2022-11-15T04:32:40;6.25;;;5.75;;
5483;SDS011;2764;48.794;8.326;2022-11-15T04:33:42;7.63;;;6.88;;
5483;SDS011;2764;48.794;8.326;2022-11-15T04:34:43;8.60;;;6.28;;
5483;SDS011;2764;48.794;8.326;2022-11-15T04:35:45;8.18;;;7.13;;
5483;SDS011;2764;48.794;8.326;2022-11-15T04:37:07;11.85;;;9.18;;
5483;SDS011;2764;48.794;8.326;2022-11-15T04:38:14;14.52;;;10.95;;
5483;SDS011;2764;48.794;8.326;2022-11-15T04:39:16;25.70;;;9.38;;
5483;SDS011;2764;48.794;8.326;2022-11-15T04:40:18;12.13;;;8.48;;
5483;SDS011;2764;48.794;8.326;2022-11-15T04:41:19;11.55;;;8.77;;
5483;SDS011;2764;48.794;8.326;2022-11-15T04:42:21;9.90;;;8.90;;
5483;SDS011;2764;48.794;8.326;2022-11-15T04:43:23;10.90;;;9.10;;
5483;SDS011;2764;48.794;8.326;2022-11-15T04:44:25;15.57;;;7.50;;
5483;SDS011;2764;48.794;8.326;2022-11-15T04:45:26;10.82;;;7.85;;
5483;SDS011;2764;48.794;8.326;2022-11-15T04:46:28;10.15;;;8.90;;
5483;SDS011;2764;48.794;8.326;2022-11-15T04:47:29;10.88;;;7.80;;
5483;SDS011;2764;48.794;8.326;2022-11-15T04:48:31;10.77;;;7.68;;
5483;SDS011;2764;48.794;8.326;2022-11-15T04:49:33;10.98;;;7.32;;
5483;SDS011;2764;48.794;8.326;2022-11-15T04:50:34;14.50;;;7.65;;
5483;SDS011;2764;48.794;8.326;2022-11-15T04:51:36;15.52;;;7.03;;
5483;SDS011;2764;48.794;8.326;2022-11-15T04:52:42;7.63;;;6.93;;
5483;SDS011;2764;48.794;8.326;2022-11-15T04:53:47;10.60;;;7.65;;
5483;SDS011;2764;48.794;8.326;2022-11-15T04:55:04;14.30;;;7.40;;
5483;SDS011;2764;48.794;8.326;2022-11-15T04:56:08;7.90;;;7.10;;
5483;SDS011;2764;48.794;8.326;2022-11-15T04:57:13;11.93;;;7.80;;
5483;SDS011;2764;48.794;8.326;2022-11-15T04:58:15;11.85;;;7.45;;
5483;SDS011;2764;48.794;8.326;2022-11-15T04:59:19;15.27;;;7.47;;
5483;SDS011;2764;48.794;8.326;2022-11-15T05:00:34;12.63;;;7.50;;
5483;SDS011;2764;48.794;8.326;2022-11-15T05:01:36;13.02;;;8.90;;
5483;SDS011;2764;48.794;8.326;2022-11-15T05:02:45;15.48;;;8.23;;
5483;SDS011;2764;48.794;8.326;2022-11-15T05:04:05;13.07;;;8.68;;
5483;SDS011;2764;48.794;8.326;2022-11-15T05:05:21;12.55;;;9.60;;
5483;SDS011;2764;48.794;8.326;2022-11-15T05:06:25;18.33;;;10.45;;
5483;SDS011;2764;48.794;8.326;2022-11-15T05:07:26;13.52;;;9.90;;
5483;SDS011;2764;48.794;8.326;2022-11-15T05:08:28;17.02;;;9.93;;
5483;SDS011;2764;48.794;8.326;2022-11-15T05:09:30;12.32;;;8.20;;
5483;SDS011;2764;48.794;8.326;2022-11-15T05:10:31;13.88;;;9.15;;
5483;SDS011;2764;48.794;8.326;2022-11-15T05:11:33;16.13;;;9.10;;
5483;SDS011;2764;48.794;8.326;2022-11-15T05:12:35;10.80;;;8.40;;
5483;SDS011;2764;48.794;8.326;2022-11-15T05:13:37;16.08;;;8.90;;
5483;SDS011;2764;48.794;8.326;2022-11-15T05:14:38;11.07;;;7.65;;
5483;SDS011;2764;48.794;8.326;2022-11-15T05:15:40;11.20;;;7.75;;
5483;SDS011;2764;48.794;8.326;2022-11-15T05:16:42;12.73;;;9.40;;
5483;SDS011;2764;48.794;8.326;2022-11-15T05:17:44;15.23;;;9.60;;
5483;SDS011;2764;48.794;8.326;2022-11-15T05:18:45;13.40;;;8.65;;
5483;SDS011;2764;48.794;8.326;2022-11-15T05:19:49;10.02;;;8.90;;
5483;SDS011;2764;48.794;8.326;2022-11-15T05:21:04;14.40;;;10.70;;
5483;SDS011;2764;48.794;8.326;2022-11-15T05:22:06;19.42;;;12.15;;
5483;SDS011;2764;48.794;8.326;2022-11-15T05:23:08;14.10;;;11.02;;
5483;SDS011;2764;48.794;8.326;2022-11-15T05:24:12;18.17;;;10.30;;
5483;SDS011;2764;48.794;8.326;2022-11-15T05:25:14;17.13;;;11.55;;
5483;SDS011;2764;48.794;8.326;2022-11-15T05:26:16;16.48;;;11.10;;
5483;SDS011;2764;48.794;8.326;2022-11-15T05:27:19;15.38;;;11.77;;
5483;SDS011;2764;48.794;8.326;2022-11-15T05:28:20;12.60;;;10.20;;
5483;SDS011;2764;48.794;8.326;2022-11-15T05:29:22;17.65;;;11.70;;
5483;SDS011;2764;48.794;8.326;2022-11-15T05:30:29;13.48;;;12.00;;
5483;SDS011;2764;48.794;8.326;2022-11-15T05:31:31;14.55;;;11.00;;
5483;SDS011;2764;48.794;8.326;2022-11-15T05:32:33;16.08;;;11.57;;
5483;SDS011;2764;48.794;8.326;2022-11-15T05:33:37;14.45;;;9.95;;
5483;SDS011;2764;48.794;8.326;2022-11-15T05:34:44;13.32;;;9.85;;
5483;SDS011;2764;48.794;8.326;2022-11-15T05:35:48;13.20;;;8.80;;
5483;SDS011;2764;48.794;8.326;2022-11-15T05:36:56;12.52;;;8.70;;
5483;SDS011;2764;48.794;8.326;2022-11-15T05:38:00;11.63;;;10.20;;
5483;SDS011;2764;48.794;8.326;2022-11-15T05:39:02;16.75;;;10.13;;
5483;SDS011;2764;48.794;8.326;2022-11-15T05:40:06;11.00;;;8.88;;
5483;SDS011;2764;48.794;8.326;2022-11-15T05:41:14;16.13;;;10.00;;
5483;SDS011;2764;48.794;8.326;2022-11-15T05:42:21;10.60;;;8.82;;
5483;SDS011;2764;48.794;8.326;2022-11-15T05:43:23;12.98;;;9.18;;
5483;SDS011;2764;48.794;8.326;2022-11-15T05:44:27;11.80;;;9.52;;
5483;SDS011;2764;48.794;8.326;2022-11-15T05:45:30;14.15;;;9.15;;
5483;SDS011;2764;48.794;8.326;2022-11-15T05:46:36;16.08;;;9.70;;
5483;SDS011;2764;48.794;8.326;2022-11-15T05:47:44;12.07;;;9.20;;
5483;SDS011;2764;48.794;8.326;2022-11-15T05:48:47;14.27;;;9.57;;
5483;SDS011;2764;48.794;8.326;2022-11-15T05:49:51;23.50;;;9.60;;
5483;SDS011;2764;48.794;8.326;2022-11-15T05:50:59;15.85;;;9.48;;
5483;SDS011;2764;48.794;8.326;2022-11-15T05:52:07;13.93;;;10.23;;
5483;SDS011;2764;48.794;8.326;2022-11-15T05:53:14;10.90;;;9.13;;
5483;SDS011;2764;48.794;8.326;2022-11-15T05:54:19;11.15;;;9.20;;
5483;SDS011;2764;48.794;8.326;2022-11-15T05:55:23;10.10;;;8.75;;
5483;SDS011;2764;48.794;8.326;2022-11-15T05:56:25;10.25;;;9.15;;
5483;SDS011;2764;48.794;8.326;2022-11-15T05:57:27;13.68;;;9.98;;
5483;SDS011;2764;48.794;8.326;2022-11-15T05:58:30;10.43;;;9.32;;
5483;SDS011;2764;48.794;8.326;2022-11-15T05:59:33;14.25;;;9.50;;
5483;SDS011;2764;48.794;8.326;2022-11-15T06:00:36;11.25;;;9.00;;
5483;SDS011;2764;48.794;8.326;2022-11-15T06:01:38;12.93;;;8.73;;
5483;SDS011;2764;48.794;8.326;2022-11-15T06:02:41;13.02;;;9.30;;
5483;SDS011;2764;48.794;8.326;2022-11-15T06:03:46;19.58;;;8.77;;
5483;SDS011;2764;48.794;8.326;2022-11-15T06:04:50;10.32;;;9.02;;
5483;SDS011;2764;48.794;8.326;2022-11-15T06:05:51;12.40;;;8.55;;
5483;SDS011;2764;48.794;8.326;2022-11-15T06:06:53;9.90;;;8.43;;
5483;SDS011;2764;48.794;8.326;2022-11-15T06:08:00;17.55;;;9.32;;
5483;SDS011;2764;48.794;8.326;2022-11-15T06:09:03;12.13;;;8.18;;
5483;SDS011;2764;48.794;8.326;2022-11-15T06:10:04;17.13;;;9.30;;
5483;SDS011;2764;48.794;8.326;2022-11-15T06:11:07;14.55;;;9.57;;
5483;SDS011;2764;48.794;8.326;2022-11-15T06:12:09;12.43;;;8.40;;
5483;SDS011;2764;48.794;8.326;2022-11-15T06:13:10;8.70;;;7.80;;
5483;SDS011;2764;48.794;8.326;2022-11-15T06:14:12;9.60;;;8.35;;
5483;SDS011;2764;48.794;8.326;2022-11-15T06:15:14;11.45;;;9.43;;
5483;SDS011;2764;48.794;8.326;2022-11-15T06:16:15;9.00;;;8.07;;
5483;SDS011;2764;48.794;8.326;2022-11-15T06:17:17;15.90;;;8.38;;
5483;SDS011;2764;48.794;8.326;2022-11-15T06:18:18;10.90;;;7.70;;
5483;SDS011;2764;48.794;8.326;2022-11-15T06:19:20;10.38;;;8.43;;
5483;SDS011;2764;48.794;8.326;2022-11-15T06:20:22;11.15;;;8.80;;
5483;SDS011;2764;48.794;8.326;2022-11-15T06:21:24;13.18;;;8.70;;
5483;SDS011;2764;48.794;8.326;2022-11-15T06:22:25;12.38;;;8.32;;
5483;SDS011;2764;48.794;8.326;2022-11-15T06:23:32;12.68;;;8.65;;
5483;SDS011;2764;48.794;8.326;2022-11-15T06:24:36;8.90;;;8.00;;
5483;SDS011;2764;48.794;8.326;2022-11-15T06:25:39;8.30;;;7.47;;
5483;SDS011;2764;48.794;8.326;2022-11-15T06:26:49;12.63;;;7.53;;
5483;SDS011;2764;48.794;8.326;2022-11-15T06:27:52;11.13;;;7.95;;
5483;SDS011;2764;48.794;8.326;2022-11-15T06:28:54;10.27;;;8.55;;
5483;SDS011;2764;48.794;8.326;2022-11-15T06:30:00;12.50;;;8.30;;
5483;SDS011;2764;48.794;8.326;2022-11-15T06:31:08;10.60;;;8.02;;
5483;SDS011;2764;48.794;8.326;2022-11-15T06:32:12;9.38;;;8.18;;
5483;SDS011;2764;48.794;8.326;2022-11-15T06:33:14;12.32;;;7.63;;
5483;SDS011;2764;48.794;8.326;2022-11-15T06:34:17;9.02;;;8.15;;
5483;SDS011;2764;48.794;8.326;2022-11-15T06:35:22;11.50;;;9.45;;
5483;SDS011;2764;48.794;8.326;2022-11-15T06:36:26;11.18;;;8.82;;
5483;SDS011;2764;48.794;8.326;2022-11-15T06:37:27;10.57;;;8.57;;
5483;SDS011;2764;48.794;8.326;2022-11-15T06:38:29;11.38;;;7.68;;
5483;SDS011;2764;48.794;8.326;2022-11-15T06:39:31;10.23;;;8.75;;
5483;SDS011;2764;48.794;8.326;2022-11-15T06:40:37;15.75;;;8.73;;
5483;SDS011;2764;48.794;8.326;2022-11-15T06:41:39;20.33;;;10.05;;
5483;SDS011;2764;48.794;8.326;2022-11-15T06:42:41;8.70;;;7.80;;
5483;SDS011;2764;48.794;8.326;2022-11-15T06:43:42;18.88;;;10.75;;
5483;SDS011;2764;48.794;8.326;2022-11-15T06:44:47;13.88;;;10.23;;
5483;SDS011;2764;48.794;8.326;2022-11-15T06:45:48;16.63;;;13.32;;
5483;SDS011;2764;48.794;8.326;2022-11-15T06:46:53;24.55;;;17.00;;
5483;SDS011;2764;48.794;8.326;2022-11-15T06:47:55;15.38;;;13.77;;
5483;SDS011;2764;48.794;8.326;2022-11-15T06:48:57;17.42;;;13.50;;
5483;SDS011;2764;48.794;8.326;2022-11-15T06:49:59;21.33;;;16.40;;
5483;SDS011;2764;48.794;8.326;2022-11-15T06:51:04;30.13;;;17.52;;
5483;SDS011;2764;48.794;8.326;2022-11-15T06:52:06;20.67;;;16.15;;
5483;SDS011;2764;48.794;8.326;2022-11-15T06:53:08;18.50;;;14.05;;
5483;SDS011;2764;48.794;8.326;2022-11-15T06:54:10;16.45;;;14.75;;
5483;SDS011;2764;48.794;8.326;2022-11-15T06:55:12;22.55;;;15.98;;
5483;SDS011;2764;48.794;8.326;2022-11-15T06:56:15;22.98;;;16.33;;
5483;SDS011;2764;48.794;8.326;2022-11-15T06:57:17;22.15;;;15.43;;
5483;SDS011;2764;48.794;8.326;2022-11-15T06:58:20;20.80;;;15.45;;
5483;SDS011;2764;48.794;8.326;2022-11-15T06:59:22;23.08;;;17.15;;
5483;SDS011;2764;48.794;8.326;2022-11-15T07:00:24;25.20;;;18.38;;
5483;SDS011;2764;48.794;8.326;2022-11-15T07:01:28;29.15;;;17.83;;
5483;SDS011;2764;48.794;8.326;2022-11-15T07:02:37;25.95;;;17.20;;
5483;SDS011;2764;48.794;8.326;2022-11-15T07:03:42;27.50;;;18.67;;
5483;SDS011;2764;48.794;8.326;2022-11-15T07:04:46;38.38;;;23.70;;